Time;durP1;ratioP1;P1;durP2;ratioP2;P2;SDS_P1;SDS_P2;PMS_P1;PMS_P2;Temp;Humidity;BMP_temperature;BMP_pressure;BME280_temperature;BME280_humidity;BME280_pressure;Samples;Min_cycle;Max_cycle;Signal;HPM_P1;HPM_P2
2022/04/11 00:00:00;;;;;;;4.77;3.07;;;2.40;99.90;;;3.00;100.00;-19828.88;5014242;28;20251;-55
2022/04/11 00:02:28;;;;;;;5.67;2.87;;;2.40;99.90;;;3.00;100.00;-19829.06;5028931;28;20305;-57
2022/04/11 00:04:56;;;;;;;3.87;2.87;;;2.40;99.90;;;2.89;100.00;-19825.31;5033026;28;20283;-54
2022/04/11 00:07:24;;;;;;;3.80;3.40;;;2.30;99.90;;;2.86;100.00;-19824.28;5033599;28;20206;-55
2022/04/11 00:09:52;;;;;;;5.57;4.00;;;2.30;99.90;;;2.86;100.00;-19824.09;5032346;28;20308;-55
2022/04/11 00:12:20;;;;;;;6.23;4.90;;;2.30;99.90;;;2.91;100.00;-19825.97;5032758;28;20305;-58
2022/04/11 00:14:49;;;;;;;5.80;4.63;;;2.30;99.90;;;2.83;100.00;-19823.25;5032822;28;20319;-57
2022/04/11 00:17:18;;;;;;;5.13;4.30;;;2.30;99.90;;;2.85;100.00;-19823.75;5032977;28;20260;-56
2022/04/11 00:19:46;;;;;;;6.77;5.37;;;2.20;99.90;;;2.90;100.00;-19825.47;5032751;28;20303;-57
2022/04/11 00:22:14;;;;;;;7.47;6.67;;;2.20;99.90;;;2.91;100.00;-19825.81;5033335;28;20202;-57
2022/04/11 00:24:42;;;;;;;7.13;5.60;;;2.20;99.90;;;2.79;100.00;-19821.72;5032252;28;20227;-55
2022/04/11 00:27:10;;;;;;;4.53;3.80;;;2.20;99.90;;;2.90;100.00;-19825.47;5032630;28;20332;-58
2022/04/11 00:29:38;;;;;;;5.07;4.17;;;2.20;99.90;;;3.18;100.00;-19835.03;5032489;28;20309;-57
2022/04/11 00:32:09;;;;;;;7.57;4.97;;;2.30;99.90;;;3.21;100.00;-19836.06;5032388;28;20229;-56
2022/04/11 00:34:37;;;;;;;6.13;4.30;;;2.40;99.90;;;3.24;100.00;-19837.28;5032296;28;20280;-55
2022/04/11 00:37:05;;;;;;;4.53;4.00;;;2.40;99.90;;;3.17;100.00;-19834.69;5033637;28;20296;-58
2022/04/11 00:39:33;;;;;;;4.30;3.53;;;2.40;99.90;;;3.08;100.00;-19831.78;5032262;28;20265;-59
2022/04/11 00:42:09;;;;;;;4.07;3.53;;;2.40;99.90;;;3.28;100.00;-19838.47;5032441;28;20232;-55
2022/04/11 00:44:37;;;;;;;3.77;3.20;;;2.40;99.90;;;3.06;100.00;-19831.09;5031935;28;20328;-57
2022/04/11 00:47:07;;;;;;;5.43;3.83;;;2.40;99.90;;;3.26;100.00;-19837.78;5032297;28;20229;-56
2022/04/11 00:49:35;;;;;;;5.07;3.53;;;2.50;99.90;;;3.14;100.00;-19833.84;5032287;28;20220;-56
2022/04/11 00:52:06;;;;;;;5.73;3.80;;;2.50;99.90;;;3.15;100.00;-19834.19;5032878;28;20218;-59
2022/04/11 00:54:34;;;;;;;4.83;2.90;;;2.50;99.90;;;3.15;100.00;-19834.00;5031745;28;20228;-57
2022/04/11 00:57:03;;;;;;;4.63;2.90;;;2.60;99.90;;;3.28;100.00;-19838.63;5032136;28;20253;-56
2022/04/11 00:59:31;;;;;;;3.83;2.67;;;2.60;99.90;;;3.35;100.00;-19840.84;5016997;28;20227;-57
2022/04/11 01:02:05;;;;;;;5.87;3.13;;;2.60;99.90;;;3.33;100.00;-19840.34;5024227;28;20730;-55
2022/04/11 01:04:34;;;;;;;4.03;3.23;;;2.60;99.90;;;3.52;100.00;-19846.66;5031989;28;20194;-57
2022/04/11 01:07:05;;;;;;;5.23;2.70;;;2.70;99.90;;;3.48;100.00;-19845.31;5032490;28;20189;-57
2022/04/11 01:09:33;;;;;;;5.43;2.70;;;2.80;99.90;;;3.45;100.00;-19844.28;5031688;28;20236;-58
2022/04/11 01:12:03;;;;;;;4.63;3.00;;;2.80;99.90;;;3.55;100.00;-19847.69;5031522;28;20683;-57
2022/04/11 01:14:31;;;;;;;4.60;2.90;;;2.80;99.90;;;3.61;100.00;-19849.91;5031629;28;20226;-57
2022/04/11 01:16:59;;;;;;;4.57;2.97;;;2.80;99.90;;;3.45;100.00;-19844.44;5031862;28;20229;-54
2022/04/11 01:19:27;;;;;;;4.93;3.03;;;2.80;99.90;;;3.46;100.00;-19844.78;5031400;28;20523;-57
2022/04/11 01:21:57;;;;;;;4.13;3.10;;;2.80;99.90;;;3.53;100.00;-19847.00;5030730;28;20206;-57
2022/04/11 01:24:25;;;;;;;4.97;2.80;;;2.80;99.90;;;3.55;100.00;-19847.69;5031195;28;20605;-54
2022/04/11 01:26:53;;;;;;;3.33;2.80;;;2.80;99.90;;;3.34;100.00;-19840.50;5031495;28;20257;-54
2022/04/11 01:29:23;;;;;;;3.13;2.60;;;2.60;99.90;;;3.23;100.00;-19836.91;5031209;28;20603;-55
2022/04/11 01:31:50;;;;;;;4.53;3.03;;;2.60;99.90;;;3.16;100.00;-19834.53;5031373;28;20226;-56
2022/04/11 01:34:18;;;;;;;3.57;2.60;;;2.50;99.90;;;3.16;100.00;-19834.34;5031464;28;20210;-57
2022/04/11 01:36:47;;;;;;;4.87;2.77;;;2.40;99.90;;;3.05;100.00;-19830.78;5031266;28;20318;-55
2022/04/11 01:39:16;;;;;;;3.00;2.50;;;2.40;99.90;;;3.14;100.00;-19833.69;5030710;28;20311;-58
2022/04/11 01:41:44;;;;;;;4.33;2.70;;;2.40;99.90;;;3.04;100.00;-19830.44;5031303;28;20232;-54
2022/04/11 01:44:12;;;;;;;3.83;2.60;;;2.40;99.90;;;3.06;100.00;-19830.94;5031432;28;20316;-58
2022/04/11 01:46:42;;;;;;;3.70;2.57;;;2.40;99.90;;;3.07;100.00;-19831.28;5031078;28;20287;-58
2022/04/11 01:49:09;;;;;;;5.13;2.80;;;2.40;99.90;;;3.04;100.00;-19830.25;5031841;28;20301;-56
2022/04/11 01:51:37;;;;;;;3.10;2.47;;;2.40;99.90;;;3.08;100.00;-19831.63;5030740;28;20716;-57
2022/04/11 01:54:06;;;;;;;4.10;2.63;;;2.40;99.90;;;3.09;100.00;-19831.97;5030799;28;20324;-56
2022/04/11 01:56:35;;;;;;;5.33;3.10;;;2.40;99.90;;;3.00;100.00;-19828.88;5030567;28;20236;-56
2022/04/11 01:59:03;;;;;;;2.87;2.57;;;2.40;99.90;;;3.14;100.00;-19833.69;5019901;28;20225;-55
2022/04/11 02:01:31;;;;;;;3.80;2.90;;;2.40;99.90;;;3.13;100.00;-19833.50;5019213;28;20231;-54
2022/04/11 02:04:00;;;;;;;3.13;2.73;;;2.50;99.90;;;3.16;100.00;-19834.34;5031563;28;20204;-57
2022/04/11 02:06:28;;;;;;;3.87;2.87;;;2.50;99.90;;;3.28;100.00;-19838.47;5030809;28;20316;-54
2022/04/11 02:08:56;;;;;;;3.63;2.60;;;2.50;99.90;;;3.31;100.00;-19839.66;5030741;28;20229;-57
2022/04/11 02:11:23;;;;;;;3.27;2.43;;;2.60;99.90;;;3.36;100.00;-19841.38;5030795;28;20227;-54
2022/04/11 02:13:53;;;;;;;4.73;2.90;;;2.60;99.90;;;3.52;100.00;-19846.84;5030875;28;20301;-56
2022/04/11 02:16:22;;;;;;;3.63;2.70;;;2.70;99.90;;;3.63;100.00;-19850.59;5030810;28;20293;-56
2022/04/11 02:18:50;;;;;;;3.30;2.40;;;2.70;99.90;;;3.78;100.00;-19855.38;5030773;28;20226;-55
2022/04/11 02:21:18;;;;;;;2.87;2.50;;;2.80;99.90;;;3.55;100.00;-19847.69;5030528;28;20221;-55
2022/04/11 02:23:46;;;;;;;3.20;2.60;;;2.80;99.90;;;3.72;100.00;-19853.50;5030675;28;20316;-58
2022/04/11 02:26:14;;;;;;;4.93;2.93;;;2.90;99.90;;;3.52;100.00;-19846.84;5030687;28;20268;-56
2022/04/11 02:28:42;;;;;;;3.20;2.47;;;2.90;99.90;;;3.55;100.00;-19847.69;5030595;28;20198;-56
2022/04/11 02:31:12;;;;;;;4.67;2.70;;;2.80;99.90;;;3.54;100.00;-19847.53;5030547;28;20753;-57
2022/04/11 02:33:40;;;;;;;3.27;2.40;;;2.80;99.90;;;3.67;100.00;-19851.97;5030170;28;20225;-56
2022/04/11 02:36:08;;;;;;;4.53;2.60;;;2.90;99.90;;;3.75;100.00;-19854.69;5030071;28;20296;-56
2022/04/11 02:38:36;;;;;;;6.03;3.07;;;2.90;99.90;;;3.75;100.00;-19854.69;5030673;28;20226;-56
2022/04/11 02:41:04;;;;;;;3.10;2.47;;;2.90;99.90;;;3.57;100.00;-19848.38;5030461;28;20248;-56
2022/04/11 02:43:31;;;;;;;3.63;2.50;;;2.90;99.90;;;3.75;100.00;-19854.53;5030465;28;20214;-57
2022/04/11 02:46:00;;;;;;;5.27;2.90;;;2.90;99.90;;;3.70;100.00;-19852.81;5030674;28;20640;-56
2022/04/11 02:48:29;;;;;;;4.97;3.17;;;2.90;99.90;;;3.78;100.00;-19855.56;5030460;28;20234;-55
2022/04/11 02:50:57;;;;;;;2.67;2.37;;;2.80;99.90;;;3.54;100.00;-19847.53;5030242;28;20225;-56
2022/04/11 02:53:26;;;;;;;4.07;2.83;;;2.80;99.90;;;3.35;100.00;-19841.03;5030326;28;20279;-54
2022/04/11 02:55:54;;;;;;;4.10;2.67;;;2.80;99.90;;;3.39;100.00;-19842.22;5030689;28;20226;-54
2022/04/11 02:58:22;;;;;;;4.80;2.83;;;2.70;99.90;;;3.42;100.00;-19843.41;5025158;28;20566;-56
2022/04/11 03:00:49;;;;;;;3.27;2.70;;;2.70;99.90;;;3.21;100.00;-19836.25;5013353;28;20253;-55
2022/04/11 03:03:17;;;;;;;3.27;2.30;;;2.60;99.90;;;3.12;100.00;-19833.00;5030131;28;20230;-57
2022/04/11 03:05:47;;;;;;;3.33;2.27;;;2.50;99.90;;;2.99;100.00;-19828.53;5030276;28;20312;-56
2022/04/11 03:08:15;;;;;;;3.73;2.80;;;2.40;99.90;;;2.94;100.00;-19826.84;5030328;28;20226;-55
2022/04/11 03:10:43;;;;;;;5.27;3.10;;;2.40;99.90;;;2.84;100.00;-19823.59;5029724;28;20729;-58
2022/04/11 03:13:11;;;;;;;3.47;2.60;;;2.30;99.90;;;3.00;100.00;-19828.88;5030379;28;20218;-53
2022/04/11 03:15:39;;;;;;;4.70;2.70;;;2.30;99.90;;;2.95;100.00;-19827.19;5029873;28;20845;-57
2022/04/11 03:18:07;;;;;;;3.90;2.93;;;2.30;99.90;;;2.95;100.00;-19827.34;5029991;28;20232;-54
2022/04/11 03:20:35;;;;;;;3.30;2.80;;;2.20;99.90;;;2.83;100.00;-19823.06;5030131;28;20255;-57
2022/04/11 03:23:05;;;;;;;4.30;2.90;;;2.20;99.90;;;2.72;100.00;-19819.31;5030104;28;20654;-58
2022/04/11 03:25:32;;;;;;;4.33;3.10;;;2.10;99.90;;;2.59;100.00;-19814.88;5030082;28;20210;-55
2022/04/11 03:28:00;;;;;;;6.03;3.40;;;2.10;99.90;;;2.79;100.00;-19821.72;5030546;28;20474;-53
2022/04/11 03:30:28;;;;;;;5.30;2.87;;;2.00;99.90;;;2.60;100.00;-19815.22;5029997;28;20287;-57
2022/04/11 03:32:56;;;;;;;4.63;3.33;;;2.00;99.90;;;2.81;100.00;-19822.41;5029400;28;20318;-56
2022/04/11 03:35:25;;;;;;;5.07;3.17;;;2.00;99.90;;;2.59;100.00;-19814.88;5029864;28;20233;-53
2022/04/11 03:37:52;;;;;;;5.67;3.93;;;2.00;99.90;;;2.55;100.00;-19813.69;5029899;28;20232;-58
2022/04/11 03:40:22;;;;;;;5.57;3.33;;;2.00;99.90;;;2.90;100.00;-19825.47;5030484;28;20299;-55
2022/04/11 03:42:50;;;;;;;5.10;3.37;;;2.00;99.90;;;2.97;100.00;-19827.88;5029559;28;20606;-56
2022/04/11 03:45:18;;;;;;;5.67;3.30;;;2.10;99.90;;;2.84;100.00;-19823.41;5030501;28;20225;-57
2022/04/11 03:47:47;;;;;;;5.13;3.50;;;2.10;99.90;;;2.60;100.00;-19815.38;5033050;28;20226;-54
2022/04/11 03:50:15;;;;;;;5.13;3.30;;;2.00;99.90;;;2.64;100.00;-19816.75;5033312;28;20224;-55
2022/04/11 03:52:43;;;;;;;6.33;3.73;;;2.00;99.90;;;2.86;100.00;-19824.09;5033039;28;20224;-55
2022/04/11 03:55:11;;;;;;;4.90;3.03;;;2.00;99.90;;;2.69;100.00;-19818.28;5033644;28;20300;-55
2022/04/11 03:57:40;;;;;;;6.40;4.23;;;2.00;99.90;;;2.41;100.00;-19809.06;5032943;28;20317;-58
2022/04/11 04:00:10;;;;;;;6.07;3.83;;;1.80;99.90;;;2.83;100.00;-19823.06;5033154;28;20325;-53
2022/04/11 04:02:38;;;;;;;6.93;3.57;;;1.90;99.90;;;2.70;100.00;-19818.81;5032781;28;20259;-56
2022/04/11 04:05:08;;;;;;;4.60;3.40;;;1.90;99.90;;;2.60;100.00;-19815.38;5033129;28;20228;-55
2022/04/11 04:07:37;;;;;;;6.17;3.93;;;1.90;99.90;;;2.66;100.00;-19817.44;5033011;28;20202;-57
2022/04/11 04:10:06;;;;;;;4.40;3.37;;;1.90;99.90;;;2.71;100.00;-19818.97;5033419;28;20251;-55
2022/04/11 04:12:34;;;;;;;4.83;3.47;;;1.90;99.90;;;2.50;100.00;-19811.97;5032749;28;20263;-53
2022/04/11 04:15:04;;;;;;;5.50;3.60;;;1.80;99.90;;;2.64;100.00;-19816.75;5032960;28;20331;-55
2022/04/11 04:17:32;;;;;;;5.57;3.30;;;1.80;99.90;;;2.40;100.00;-19808.72;5033088;28;20236;-55
2022/04/11 04:20:07;;;;;;;4.93;3.63;;;1.80;99.90;;;2.33;100.00;-19806.31;5032916;28;20251;-55
2022/04/11 04:22:36;;;;;;;5.53;3.47;;;1.70;99.90;;;2.24;100.00;-19803.06;5032808;28;20207;-54
2022/04/11 04:25:05;;;;;;;5.60;4.90;;;1.70;99.90;;;2.15;100.00;-19800.00;5033365;28;20462;-55
2022/04/11 04:27:34;;;;;;;6.57;3.50;;;1.60;99.90;;;2.10;100.00;-19798.47;5032501;28;20253;-56
2022/04/11 04:30:04;;;;;;;5.37;3.90;;;1.60;99.90;;;2.41;100.00;-19809.06;5032331;28;20245;-55
2022/04/11 04:32:32;;;;;;;7.23;3.60;;;1.60;99.90;;;2.42;100.00;-19809.22;5032182;28;20311;-56
2022/04/11 04:35:01;;;;;;;7.53;3.93;;;1.70;99.90;;;2.70;100.00;-19818.81;5032777;28;20222;-54
2022/04/11 04:37:29;;;;;;;5.70;3.63;;;1.70;99.90;;;2.44;100.00;-19810.09;5032471;28;20233;-54
2022/04/11 04:39:57;;;;;;;5.33;3.80;;;1.70;99.90;;;2.30;100.00;-19805.13;5032703;28;20664;-55
2022/04/11 04:42:26;;;;;;;4.33;3.70;;;1.70;99.90;;;2.31;100.00;-19805.47;5032235;28;20320;-55
2022/04/11 04:44:55;;;;;;;6.07;4.00;;;1.70;99.90;;;2.42;100.00;-19809.22;5032527;28;20234;-56
2022/04/11 04:47:25;;;;;;;4.33;3.60;;;1.70;99.90;;;2.32;100.00;-19805.97;5032033;28;20304;-57
2022/04/11 04:49:53;;;;;;;9.43;3.67;;;1.70;99.90;;;2.35;100.00;-19807.00;5032504;28;20232;-54
2022/04/11 04:52:21;;;;;;;8.03;3.60;;;1.70;99.90;;;2.38;100.00;-19808.03;5032376;28;20217;-55
2022/04/11 04:54:49;;;;;;;7.77;4.10;;;1.70;99.90;;;2.46;100.00;-19810.78;5032055;28;20229;-54
2022/04/11 04:57:17;;;;;;;6.83;4.03;;;1.70;99.90;;;2.50;100.00;-19812.13;5031727;28;20313;-55
2022/04/11 04:59:45;;;;;;;6.90;3.83;;;1.80;99.90;;;2.40;100.00;-19808.72;5015733;28;20227;-55
2022/04/11 05:02:13;;;;;;;6.77;4.20;;;1.70;99.90;;;2.42;100.00;-19809.22;5026044;28;20673;-55
2022/04/11 05:04:42;;;;;;;6.47;4.60;;;1.80;99.90;;;2.54;100.00;-19813.16;5032300;28;20204;-54
2022/04/11 05:07:10;;;;;;;6.13;4.20;;;1.80;99.90;;;2.67;100.00;-19817.78;5032473;28;20202;-54
2022/04/11 05:09:38;;;;;;;5.47;4.07;;;1.90;99.90;;;2.74;100.00;-19820.16;5031705;28;20309;-56
2022/04/11 05:12:08;;;;;;;8.23;4.20;;;2.00;99.90;;;2.95;100.00;-19827.34;5031448;28;20262;-59
2022/04/11 05:14:35;;;;;;;6.13;4.33;;;2.10;99.90;;;2.99;100.00;-19828.53;5031325;28;20685;-56
2022/04/11 05:17:04;;;;;;;6.70;4.20;;;2.10;99.90;;;3.02;100.00;-19829.56;5031427;28;20232;-55
2022/04/11 05:19:32;;;;;;;5.33;3.90;;;2.20;99.90;;;3.08;100.00;-19831.63;5031421;28;20335;-56
2022/04/11 05:22:01;;;;;;;6.37;4.20;;;2.30;99.90;;;3.12;100.00;-19833.00;5031842;28;20202;-58
2022/04/11 05:24:29;;;;;;;5.77;3.77;;;2.40;99.90;;;3.45;100.00;-19844.28;5030734;28;20217;-56
2022/04/11 05:26:57;;;;;;;5.73;4.20;;;2.60;99.90;;;3.59;100.00;-19849.06;5031248;28;20354;-58
2022/04/11 05:29:25;;;;;;;5.43;4.40;;;2.80;99.90;;;3.93;100.00;-19860.69;5030862;28;20304;-57
2022/04/11 05:31:53;;;;;;;4.87;3.70;;;2.90;99.90;;;4.13;100.00;-19867.34;5030889;28;20711;-56
2022/04/11 05:34:21;;;;;;;5.00;3.73;;;3.20;99.90;;;4.25;100.00;-19871.44;5031669;28;20275;-55
2022/04/11 05:36:49;;;;;;;5.53;3.93;;;3.40;99.90;;;4.44;100.00;-19877.94;5031022;28;20309;-57
2022/04/11 05:39:18;;;;;;;5.53;3.77;;;3.50;99.90;;;4.50;100.00;-19880.16;5030771;28;20255;-55
2022/04/11 05:41:46;;;;;;;6.07;4.53;;;3.60;99.90;;;4.61;100.00;-19883.75;5030833;28;20320;-56
2022/04/11 05:44:16;;;;;;;5.03;4.10;;;3.80;99.90;;;4.70;100.00;-19886.84;5030963;28;20227;-59
2022/04/11 05:46:45;;;;;;;6.40;3.90;;;4.00;99.90;;;4.80;100.00;-19890.41;5031092;28;20229;-57
2022/04/11 05:49:13;;;;;;;5.73;4.20;;;4.00;99.90;;;4.91;100.00;-19894.19;5031154;28;20207;-55
2022/04/11 05:51:41;;;;;;;4.50;3.97;;;4.10;99.90;;;5.15;100.00;-19902.03;5030938;28;20446;-55
2022/04/11 05:54:09;;;;;;;4.47;3.50;;;4.30;99.90;;;5.16;100.00;-19902.41;5030567;28;20226;-56
2022/04/11 05:56:38;;;;;;;6.43;3.60;;;4.40;99.90;;;5.27;100.00;-19906.16;5030902;28;20230;-56
2022/04/11 05:59:08;;;;;;;6.50;3.93;;;4.50;99.90;;;5.64;100.00;-19918.97;5019334;28;20219;-56
2022/04/11 06:01:36;;;;;;;4.53;3.60;;;4.70;99.90;;;6.01;100.00;-19931.44;5019847;28;20261;-56
2022/04/11 06:04:05;;;;;;;5.53;3.57;;;5.00;99.90;;;6.21;100.00;-19938.13;5031000;28;20205;-58
2022/04/11 06:06:33;;;;;;;7.27;5.63;;;5.20;99.90;;;6.13;100.00;-19935.72;5030750;28;20229;-55
2022/04/11 06:09:01;;;;;;;5.37;3.73;;;5.30;99.90;;;6.03;100.00;-19932.13;5029723;28;20611;-56
2022/04/11 06:11:29;;;;;;;4.30;3.53;;;5.30;99.90;;;5.92;100.00;-19928.53;5030629;28;20235;-58
2022/04/11 06:13:58;;;;;;;4.10;3.03;;;5.30;99.90;;;5.91;100.00;-19928.03;5030291;28;20235;-57
2022/04/11 06:16:27;;;;;;;4.90;3.50;;;5.20;99.90;;;5.80;100.00;-19924.44;5031224;28;20245;-55
2022/04/11 06:18:55;;;;;;;4.03;3.47;;;5.10;99.90;;;5.80;100.00;-19924.44;5030402;28;20283;-57
2022/04/11 06:21:23;;;;;;;5.83;3.77;;;5.20;99.90;;;5.80;100.00;-19924.28;5029951;28;20598;-55
2022/04/11 06:23:51;;;;;;;5.53;3.23;;;5.10;99.90;;;5.85;100.00;-19925.97;5030222;28;20229;-57
2022/04/11 06:26:18;;;;;;;5.57;3.70;;;5.20;99.90;;;5.97;100.00;-19930.25;5030443;28;20315;-57
2022/04/11 06:28:47;;;;;;;5.53;4.23;;;5.20;99.90;;;6.05;100.00;-19932.81;5030062;28;21773;-58
2022/04/11 06:31:16;;;;;;;4.97;3.90;;;5.30;99.90;;;5.98;100.00;-19930.44;5030954;28;20318;-56
2022/04/11 06:33:44;;;;;;;5.30;3.73;;;5.30;99.90;;;6.13;100.00;-19935.56;5030075;28;20263;-56
2022/04/11 06:36:18;;;;;;;4.37;3.60;;;5.40;99.90;;;6.30;100.00;-19941.19;5030255;28;20254;-58
2022/04/11 06:38:46;;;;;;;6.27;3.70;;;5.50;99.90;;;6.21;100.00;-19938.13;5030394;28;20255;-57
2022/04/11 06:41:14;;;;;;;7.53;3.97;;;5.50;99.90;;;6.30;100.00;-19941.19;5030171;28;20225;-56
2022/04/11 06:43:42;;;;;;;5.77;3.67;;;5.50;99.90;;;6.38;100.00;-19943.94;5029704;28;20254;-58
2022/04/11 06:46:10;;;;;;;5.40;3.73;;;5.60;99.90;;;6.59;100.00;-19951.09;5030396;28;20298;-56
2022/04/11 06:48:39;;;;;;;3.90;3.50;;;5.70;99.90;;;6.78;100.00;-19957.75;5029286;28;20227;-58
2022/04/11 06:51:07;;;;;;;7.90;3.60;;;5.80;99.90;;;6.91;99.52;-19962.22;5029244;28;20741;-57
2022/04/11 06:53:35;;;;;;;4.23;3.20;;;6.00;99.90;;;7.26;97.90;-19974.00;5029911;28;20704;-56
2022/04/11 06:56:03;;;;;;;5.73;3.50;;;6.10;99.90;;;7.27;96.48;-19974.50;5030131;28;20232;-56
2022/04/11 06:58:32;;;;;;;3.67;3.30;;;6.30;99.90;;;7.25;94.59;-19973.84;5023575;28;20205;-56
2022/04/11 07:01:00;;;;;;;6.17;3.63;;;6.30;99.90;;;7.37;93.35;-19977.94;5013150;28;20224;-60
2022/04/11 07:03:32;;;;;;;3.97;3.27;;;6.40;99.90;;;7.40;90.00;-19978.78;5030074;28;20225;-59
2022/04/11 07:06:01;;;;;;;3.73;3.20;;;6.40;99.90;;;7.34;92.13;-19976.91;5029990;28;20255;-60
2022/04/11 07:08:29;;;;;;;4.60;3.60;;;6.40;99.90;;;7.29;92.97;-19975.19;5029826;28;20713;-58
2022/04/11 07:10:58;;;;;;;4.80;3.43;;;6.40;99.90;;;7.53;92.09;-19983.22;5029505;28;20225;-59
2022/04/11 07:13:27;;;;;;;4.00;3.00;;;6.50;99.90;;;7.58;89.90;-19984.94;5029925;28;20248;-58
2022/04/11 07:15:56;;;;;;;4.73;3.77;;;6.60;99.90;;;7.59;88.75;-19985.09;5030106;28;20235;-59
2022/04/11 07:18:27;;;;;;;3.50;3.20;;;6.60;99.90;;;7.58;90.48;-19984.78;5029091;28;20229;-61
2022/04/11 07:20:55;;;;;;;3.80;2.87;;;6.60;99.90;;;7.64;89.67;-19987.00;5032810;28;20265;-60
2022/04/11 07:23:25;;;;;;;4.87;3.30;;;6.70;99.90;;;7.64;89.62;-19987.00;5033485;28;20271;-60
2022/04/11 07:25:53;;;;;;;4.80;3.80;;;6.70;99.90;;;7.67;90.26;-19987.84;5032001;28;20655;-60
2022/04/11 07:28:21;;;;;;;7.07;3.60;;;6.80;99.90;;;7.98;88.33;-19998.44;5026932;28;20682;-58
2022/04/11 07:30:49;;;;;;;4.70;3.60;;;6.80;99.90;;;7.80;89.05;-19992.47;5019035;28;20256;-58
2022/04/11 07:33:17;;;;;;;4.30;3.30;;;6.90;99.90;;;7.76;90.78;-19990.91;5033387;28;20225;-57
2022/04/11 07:35:45;;;;;;;4.03;3.23;;;6.90;99.90;;;8.06;89.04;-20001.34;5032937;28;20261;-59
2022/04/11 07:38:13;;;;;;;4.60;3.00;;;7.00;99.90;;;8.01;88.22;-19999.47;5032999;28;20293;-58
2022/04/11 07:40:49;;;;;;;6.27;3.17;;;7.10;99.90;;;8.18;85.92;-20005.28;5033168;28;20278;-58
2022/04/11 07:43:17;;;;;;;3.90;3.07;;;7.20;99.90;;;8.05;85.44;-20000.84;5033519;28;20301;-58
2022/04/11 07:45:45;;;;;;;3.10;2.53;;;7.20;99.90;;;8.19;84.19;-20005.78;5032727;28;20705;-59
2022/04/11 07:48:13;;;;;;;3.60;2.93;;;7.20;99.90;;;8.27;85.13;-20008.53;5032874;28;20636;-53
2022/04/11 07:50:41;;;;;;;3.17;2.83;;;7.30;99.90;;;8.33;86.06;-20010.41;5032599;28;20308;-59
2022/04/11 07:53:09;;;;;;;4.27;3.00;;;7.40;99.90;;;8.44;85.40;-20014.16;5033238;28;20246;-61
2022/04/11 07:55:37;;;;;;;4.63;2.80;;;7.50;99.90;;;8.53;84.08;-20017.22;5032665;28;20232;-61
2022/04/11 07:58:07;;;;;;;4.20;2.33;;;7.60;99.90;;;8.62;80.54;-20020.31;5037985;28;20213;-57
2022/04/11 08:00:35;;;;;;;3.20;2.73;;;7.60;99.90;;;8.77;82.10;-20025.25;5032193;28;20780;-60
2022/04/11 08:03:03;;;;;;;3.80;2.30;;;7.70;99.90;;;8.83;78.36;-20027.47;5032305;28;20725;-60
2022/04/11 08:05:32;;;;;;;4.37;2.30;;;7.80;99.90;;;8.87;78.45;-20028.69;5032550;28;20643;-60
2022/04/11 08:08:00;;;;;;;6.00;2.63;;;7.90;99.90;;;8.98;79.28;-20032.59;5032994;28;20309;-58
2022/04/11 08:10:28;;;;;;;4.90;2.40;;;7.90;99.90;;;9.16;79.06;-20038.75;5032772;28;20198;-57
2022/04/11 08:12:59;;;;;;;5.17;2.67;;;8.00;99.90;;;9.34;75.13;-20044.91;5032526;28;20210;-58
2022/04/11 08:15:32;;;;;;;4.93;2.40;;;8.20;99.90;;;9.54;68.73;-20051.75;5032354;28;20230;-59
2022/04/11 08:18:01;;;;;;;3.20;2.00;;;8.40;99.90;;;9.47;67.98;-20049.19;5032140;28;20308;-56
2022/04/11 08:20:29;;;;;;;2.43;2.13;;;8.40;99.90;;;9.45;68.63;-20048.66;5032442;28;20257;-57
2022/04/11 08:22:57;;;;;;;2.23;1.60;;;8.50;99.90;;;9.49;67.89;-20050.03;5032451;28;20308;-58
2022/04/11 08:25:26;;;;;;;2.10;1.90;;;8.40;99.90;;;9.46;67.65;-20048.84;5032742;28;20201;-58
2022/04/11 08:27:54;;;;;;;3.67;2.10;;;8.50;99.90;;;9.44;67.19;-20048.16;5032506;28;20321;-60
2022/04/11 08:30:22;;;;;;;2.67;2.00;;;8.50;99.90;;;9.66;65.10;-20055.66;5032041;28;20318;-61
2022/04/11 08:32:53;;;;;;;3.97;2.30;;;8.60;99.90;;;9.79;66.83;-20060.28;5031180;28;20229;-58
2022/04/11 08:35:23;;;;;;;3.60;2.30;;;8.60;99.90;;;9.80;66.83;-20060.63;5031832;28;20230;-56
2022/04/11 08:37:51;;;;;;;4.83;2.23;;;8.70;99.90;;;9.96;65.58;-20065.75;5032031;28;20309;-58
2022/04/11 08:40:20;;;;;;;2.93;2.23;;;8.80;99.90;;;10.15;64.84;-20072.25;5032226;28;20633;-58
2022/04/11 08:42:50;;;;;;;4.27;2.30;;;9.00;99.90;;;10.20;65.55;-20073.97;5031582;28;20221;-60
2022/04/11 08:45:21;;;;;;;5.07;2.60;;;9.00;99.90;;;10.19;64.92;-20073.63;5029549;28;20276;-60
2022/04/11 08:47:53;;;;;;;2.50;2.00;;;9.10;99.90;;;10.35;62.89;-20079.09;5011882;28;20230;-55
2022/04/11 08:50:22;;;;;;;2.50;2.07;;;9.20;99.90;;;10.34;63.34;-20078.91;5011787;28;20678;-58
2022/04/11 08:52:52;;;;;;;7.03;2.03;;;9.20;99.90;;;10.37;62.58;-20079.94;5011568;28;20704;-61
2022/04/11 08:55:21;;;;;;;4.60;2.10;;;9.20;99.90;;;10.54;62.45;-20085.56;5012451;28;20313;-60
2022/04/11 08:57:49;;;;;;;2.10;1.57;;;9.40;99.90;;;10.49;61.26;-20083.84;5017506;28;20628;-59
2022/04/11 09:00:20;;;;;;;2.87;1.67;;;9.40;99.90;;;10.63;58.30;-20088.66;5031609;28;20305;-61
2022/04/11 09:02:50;;;;;;;3.33;2.10;;;9.60;99.90;;;10.84;58.02;-20096.00;5031175;28;20229;-59
2022/04/11 09:05:24;;;;;;;3.33;2.07;;;9.60;99.90;;;10.70;55.33;-20091.22;5031339;28;20303;-60
2022/04/11 09:07:54;;;;;;;5.77;1.77;;;9.60;99.90;;;10.73;56.00;-20092.22;5031623;28;20313;-59
2022/04/11 09:10:24;;;;;;;2.57;2.00;;;9.60;99.90;;;10.87;56.05;-20097.00;5031248;28;20678;-62
2022/04/11 09:12:55;;;;;;;4.47;1.93;;;9.70;99.90;;;11.17;56.65;-20107.09;5031385;28;20682;-60
2022/04/11 09:15:25;;;;;;;2.10;1.77;;;9.80;99.90;;;11.17;57.01;-20107.09;5031222;28;20241;-61
2022/04/11 09:17:57;;;;;;;4.33;2.07;;;10.00;99.90;;;11.35;54.23;-20113.22;5030917;28;20721;-57
2022/04/11 09:20:29;;;;;;;3.27;2.00;;;10.10;99.90;;;11.35;54.62;-20113.06;5031245;28;20279;-59
2022/04/11 09:22:59;;;;;;;7.47;1.80;;;10.10;99.90;;;11.20;54.68;-20108.13;5030907;28;20217;-60
2022/04/11 09:25:30;;;;;;;2.97;1.70;;;10.10;99.90;;;11.42;54.75;-20115.63;5031148;28;20204;-63
2022/04/11 09:28:07;;;;;;;3.90;1.80;;;10.20;99.90;;;11.53;52.56;-20119.22;5031490;28;20642;-61
2022/04/11 09:30:36;;;;;;;5.37;1.90;;;10.30;99.90;;;11.45;53.82;-20116.47;5030811;28;20237;-55
2022/04/11 09:33:08;;;;;;;3.37;2.20;;;10.30;99.90;;;11.73;52.24;-20126.22;5031157;28;20766;-58
2022/04/11 09:35:40;;;;;;;3.13;1.70;;;10.40;99.90;;;12.25;49.98;-20143.81;5031269;28;20241;-61
2022/04/11 09:38:12;;;;;;;3.90;1.73;;;10.60;99.90;;;12.66;50.25;-20157.81;5030819;28;20296;-58
2022/04/11 09:40:44;;;;;;;4.80;1.90;;;11.10;99.90;;;12.69;50.38;-20158.66;5030869;28;20273;-57
2022/04/11 09:43:14;;;;;;;2.43;1.43;;;11.20;99.90;;;12.82;45.77;-20163.28;5030634;28;20277;-61
2022/04/11 09:45:44;;;;;;;1.53;1.40;;;11.30;99.90;;;13.05;44.93;-20170.97;5030820;28;20326;-57
2022/04/11 09:48:18;;;;;;;2.30;1.80;;;11.50;99.90;;;13.11;46.18;-20173.00;5030488;28;20238;-60
2022/04/11 09:50:48;;;;;;;5.17;1.63;;;11.50;99.90;;;13.48;47.35;-20185.63;5030707;28;20664;-66
2022/04/11 09:53:18;;;;;;;2.30;1.50;;;11.70;99.90;;;13.84;44.32;-20197.75;5030302;28;20763;-64
2022/04/11 09:55:50;;;;;;;2.67;1.60;;;12.00;99.90;;;13.97;43.77;-20202.19;5030334;28;21882;-64
2022/04/11 09:58:20;;;;;;;3.30;1.40;;;12.30;99.90;;;13.47;44.15;-20185.31;5025940;28;20202;-60
2022/04/11 10:00:51;;;;;;;1.87;1.53;;;12.00;99.90;;;13.41;45.05;-20183.41;5010525;28;20310;-60
2022/04/11 10:03:24;;;;;;;2.27;1.80;;;11.90;99.90;;;13.14;45.03;-20174.19;5014789;28;20288;-63
2022/04/11 10:05:59;;;;;;;1.60;1.50;;;11.80;99.90;;;13.02;42.83;-20170.09;5022365;28;20241;-58
2022/04/11 10:08:28;;;;;;;1.50;1.40;;;11.60;99.90;;;12.88;45.49;-20165.16;5025769;28;20778;-62
2022/04/11 10:10:57;;;;;;;4.10;1.73;;;11.60;99.90;;;12.69;45.26;-20158.84;5025712;28;20230;-58
2022/04/11 10:13:25;;;;;;;3.73;1.60;;;11.50;99.90;;;12.24;47.12;-20143.47;5026843;28;20233;-59
2022/04/11 10:15:54;;;;;;;5.20;1.80;;;11.20;99.90;;;12.23;47.38;-20143.28;5026619;28;20237;-59
2022/04/11 10:18:28;;;;;;;3.93;1.80;;;11.10;99.90;;;12.40;46.85;-20148.75;5027861;28;20295;-60
2022/04/11 10:21:00;;;;;;;2.57;1.70;;;11.10;99.90;;;12.45;47.05;-20150.47;5029513;28;20230;-61
2022/04/11 10:24:00;;;;;;;2.43;1.87;;;11.10;99.90;;;12.73;44.63;-20160.03;5029272;28;20238;-60
2022/04/11 10:26:44;;;;;;;1.83;1.60;;;11.30;99.90;;;12.72;44.05;-20159.69;5028918;28;20584;-61